Time;durP1;ratioP1;P1;durP2;ratioP2;P2;SDS_P1;SDS_P2;PMS_P1;PMS_P2;Temp;Humidity;BMP_temperature;BMP_pressure;BME280_temperature;BME280_humidity;BME280_pressure;Samples;Min_cycle;Max_cycle;Signal;HPM_P1;HPM_P2
2022/06/23 00:02:12;;;;;;;8.33;5.43;;;21.40;99.90;;;;;;5026801;28;20418;-72
2022/06/23 00:04:42;;;;;;;7.37;4.03;;;21.50;99.90;;;;;;5024919;28;20482;-74
2022/06/23 00:07:26;;;;;;;8.20;4.60;;;21.50;99.90;;;;;;5026660;28;21485;-73
2022/06/23 00:09:55;;;;;;;9.80;6.00;;;21.50;99.90;;;;;;5026456;28;20438;-73
2022/06/23 00:12:41;;;;;;;10.00;5.87;;;21.40;99.90;;;;;;5026468;28;20406;-72
2022/06/23 00:15:06;;;;;;;7.47;5.23;;;21.40;99.90;;;;;;5026444;28;20425;-72
2022/06/23 00:17:36;;;;;;;8.60;5.53;;;21.30;99.90;;;;;;5025762;28;20458;-72
2022/06/23 00:20:17;;;;;;;12.10;6.03;;;21.30;99.90;;;;;;5024931;28;20218;-71
2022/06/23 00:22:52;;;;;;;10.50;7.97;;;21.20;99.90;;;;;;5026548;28;20418;-72
2022/06/23 00:25:28;;;;;;;9.63;6.07;;;21.20;99.90;;;;;;5026436;28;20414;-72
2022/06/23 00:27:54;;;;;;;8.60;5.57;;;21.00;99.90;;;;;;5025540;28;20410;-73
2022/06/23 00:30:28;;;;;;;9.33;4.97;;;20.90;99.90;;;;;;5026106;28;20461;-72
2022/06/23 00:32:53;;;;;;;11.83;6.20;;;20.80;99.90;;;;;;5026350;28;20794;-72
2022/06/23 00:35:20;;;;;;;13.53;6.50;;;20.60;99.90;;;;;;5025679;28;20429;-71
2022/06/23 00:37:51;;;;;;;8.03;5.27;;;20.40;99.90;;;;;;5026119;28;20176;-72
2022/06/23 00:40:21;;;;;;;13.90;6.10;;;20.40;99.90;;;;;;5025881;28;20656;-72
2022/06/23 00:42:54;;;;;;;9.63;6.63;;;20.40;99.90;;;;;;5026042;28;20447;-72
2022/06/23 00:45:40;;;;;;;8.90;5.83;;;20.40;99.90;;;;;;5026026;28;20471;-72
2022/06/23 00:48:30;;;;;;;11.43;5.87;;;20.50;99.90;;;;;;5025203;28;20875;-73
2022/06/23 00:51:13;;;;;;;13.03;6.20;;;20.30;99.90;;;;;;5025307;28;20957;-72
2022/06/23 00:54:17;;;;;;;11.13;5.50;;;20.30;99.90;;;;;;5025939;28;20520;-72
2022/06/23 00:57:18;;;;;;;11.90;6.17;;;20.20;99.90;;;;;;4944962;29;20457;-73
2022/06/23 00:59:59;;;;;;;10.70;6.80;;;20.20;99.90;;;;;;4944867;28;21614;-72
2022/06/23 01:02:38;;;;;;;11.97;6.90;;;20.20;99.90;;;;;;5015796;28;20433;-72
2022/06/23 01:05:14;;;;;;;8.13;5.10;;;20.30;99.90;;;;;;5025572;28;20433;-72
2022/06/23 01:07:59;;;;;;;15.67;7.57;;;20.20;99.90;;;;;;5025418;28;20413;-71
2022/06/23 01:10:48;;;;;;;9.17;6.10;;;20.10;99.90;;;;;;5024397;28;20446;-73
2022/06/23 01:13:35;;;;;;;10.20;6.17;;;19.90;99.90;;;;;;5014859;28;20470;-73
2022/06/23 01:16:21;;;;;;;8.37;5.87;;;19.90;99.90;;;;;;5025157;28;20496;-72
2022/06/23 01:18:55;;;;;;;8.63;5.80;;;20.00;99.90;;;;;;5025099;28;20428;-71
2022/06/23 01:21:43;;;;;;;11.33;6.10;;;19.90;99.90;;;;;;5025424;28;20480;-71
2022/06/23 01:24:42;;;;;;;7.70;6.20;;;19.90;99.90;;;;;;5025111;28;20409;-72
2022/06/23 01:27:11;;;;;;;16.40;7.13;;;20.00;99.90;;;;;;5025173;28;20787;-72
2022/06/23 01:29:46;;;;;;;5.57;5.03;;;20.00;99.90;;;;;;5006381;28;20974;-72
2022/06/23 01:32:30;;;;;;;11.50;5.70;;;20.00;99.90;;;;;;5024514;28;20417;-72
2022/06/23 01:35:05;;;;;;;9.33;6.33;;;20.00;99.90;;;;;;5006729;28;20421;-72
2022/06/23 01:37:41;;;;;;;13.70;6.20;;;19.90;99.90;;;;;;5024557;28;20798;-71
2022/06/23 01:40:43;;;;;;;9.40;6.30;;;20.00;99.90;;;;;;5024646;28;20432;-71
2022/06/23 01:43:20;;;;;;;12.37;6.43;;;20.10;99.90;;;;;;5025469;28;20428;-72
2022/06/23 01:46:11;;;;;;;7.47;5.80;;;20.00;99.90;;;;;;5025281;28;20409;-72
2022/06/23 01:48:53;;;;;;;13.47;6.33;;;20.00;99.90;;;;;;5024408;28;20410;-71
2022/06/23 01:51:23;;;;;;;13.10;6.70;;;20.10;99.90;;;;;;5024777;28;20421;-71
2022/06/23 01:53:50;;;;;;;9.03;7.47;;;19.90;99.90;;;;;;5024709;28;20497;-72
2022/06/23 01:56:26;;;;;;;9.53;5.70;;;19.80;99.90;;;;;;5006792;28;20943;-71
2022/06/23 01:59:18;;;;;;;7.23;6.37;;;19.90;99.90;;;;;;5024076;28;20445;-72
2022/06/23 02:01:56;;;;;;;14.93;6.97;;;19.80;99.90;;;;;;5023380;28;20406;-72
2022/06/23 02:04:54;;;;;;;10.93;5.90;;;19.80;99.90;;;;;;5024217;28;20765;-72
2022/06/23 02:07:42;;;;;;;10.67;6.00;;;19.80;99.90;;;;;;5024191;28;20501;-72
2022/06/23 02:10:19;;;;;;;9.67;6.17;;;19.80;99.90;;;;;;5024244;28;20434;-71
2022/06/23 02:12:54;;;;;;;11.47;7.67;;;19.80;99.90;;;;;;5023800;28;20471;-72
2022/06/23 02:15:37;;;;;;;13.47;7.07;;;19.80;99.90;;;;;;5024068;28;20398;-72
2022/06/23 02:18:16;;;;;;;10.97;5.93;;;19.80;99.90;;;;;;5024278;28;20417;-72
2022/06/23 02:20:52;;;;;;;11.30;6.93;;;19.70;99.90;;;;;;5023392;28;20880;-73
2022/06/23 02:24:00;;;;;;;9.30;6.30;;;19.60;99.90;;;;;;5024671;28;20409;-72
2022/06/23 02:26:54;;;;;;;10.53;6.30;;;19.60;99.90;;;;;;4997218;28;20513;-73
2022/06/23 02:29:25;;;;;;;13.77;6.70;;;19.70;99.90;;;;;;5006267;28;20486;-73
2022/06/23 02:32:00;;;;;;;14.37;6.43;;;19.60;99.90;;;;;;5023479;28;20414;-72
2022/06/23 02:34:46;;;;;;;10.20;6.30;;;19.60;99.90;;;;;;5006370;28;20845;-72
2022/06/23 02:37:47;;;;;;;11.60;5.90;;;19.60;99.90;;;;;;5023960;28;20883;-72
2022/06/23 02:40:34;;;;;;;9.73;6.43;;;19.50;99.90;;;;;;5024037;28;20503;-72
2022/06/23 02:43:25;;;;;;;15.10;6.80;;;19.50;99.90;;;;;;5024095;28;20406;-72
2022/06/23 02:46:17;;;;;;;11.30;6.40;;;19.50;99.90;;;;;;5024121;28;20428;-73
2022/06/23 02:48:52;;;;;;;9.10;6.17;;;19.50;99.90;;;;;;5023940;28;20410;-73
2022/06/23 02:51:44;;;;;;;11.07;7.73;;;19.40;99.90;;;;;;5024115;28;20509;-72
2022/06/23 02:54:19;;;;;;;8.27;5.97;;;19.40;99.90;;;;;;5024026;28;20417;-72
2022/06/23 02:57:21;;;;;;;12.87;7.40;;;19.40;99.90;;;;;;5023545;28;20445;-72
2022/06/23 02:59:57;;;;;;;11.00;7.20;;;19.40;99.90;;;;;;5023441;28;20491;-72
2022/06/23 03:03:09;;;;;;;9.77;6.73;;;19.20;99.90;;;;;;5023627;28;20489;-72
2022/06/23 03:05:50;;;;;;;7.67;5.57;;;19.20;99.90;;;;;;5019208;28;20440;-72
2022/06/23 03:08:27;;;;;;;10.23;6.43;;;19.20;99.90;;;;;;5023586;28;20414;-72
2022/06/23 03:11:06;;;;;;;16.40;6.77;;;19.30;99.90;;;;;;5023871;28;21455;-72
2022/06/23 03:13:42;;;;;;;9.90;6.83;;;19.40;99.90;;;;;;5023656;28;20429;-71
2022/06/23 03:16:20;;;;;;;10.90;5.63;;;19.50;99.90;;;;;;5023478;28;20464;-72
2022/06/23 03:19:14;;;;;;;8.33;6.70;;;19.60;99.90;;;;;;5023336;28;20437;-72
2022/06/23 03:21:46;;;;;;;14.47;6.13;;;19.50;99.90;;;;;;5023135;28;20422;-73
2022/06/23 03:24:29;;;;;;;8.67;6.10;;;19.50;99.90;;;;;;5023362;28;20410;-72
2022/06/23 03:27:13;;;;;;;11.33;7.10;;;19.50;99.90;;;;;;5023588;28;20420;-71
2022/06/23 03:29:44;;;;;;;9.90;6.67;;;19.40;99.90;;;;;;5023202;28;20487;-73
2022/06/23 03:32:28;;;;;;;14.00;7.00;;;19.30;99.90;;;;;;5023229;28;20401;-72
2022/06/23 03:35:13;;;;;;;9.13;7.03;;;19.40;99.90;;;;;;5023112;28;20492;-72
2022/06/23 03:37:47;;;;;;;16.37;7.13;;;19.40;99.90;;;;;;5023163;28;20446;-72
2022/06/23 03:43:21;;;;;;;9.90;6.43;;;19.30;99.90;;;;;;5023471;28;20397;-72
2022/06/23 03:45:59;;;;;;;8.40;6.03;;;19.50;99.90;;;;;;5022914;28;20532;-71
2022/06/23 03:48:30;;;;;;;13.17;7.53;;;19.50;99.90;;;;;;5023379;28;20803;-73
2022/06/23 03:51:08;;;;;;;13.83;6.93;;;19.60;99.90;;;;;;5022764;28;20414;-71
2022/06/23 03:53:43;;;;;;;10.90;6.00;;;19.70;99.90;;;;;;5023449;28;20905;-71
2022/06/23 03:56:18;;;;;;;6.97;6.10;;;19.70;99.90;;;;;;5026728;28;20506;-71
2022/06/23 03:58:52;;;;;;;10.50;6.53;;;19.80;99.90;;;;;;5026602;28;20512;-71
2022/06/23 04:01:24;;;;;;;9.30;5.87;;;19.80;99.90;;;;;;5026735;28;20914;-72
2022/06/23 04:03:58;;;;;;;13.50;6.47;;;19.80;99.90;;;;;;5026020;28;20496;-71
2022/06/23 04:06:36;;;;;;;10.50;6.30;;;19.80;99.90;;;;;;5026119;28;20402;-72
2022/06/23 04:09:09;;;;;;;9.60;6.27;;;19.80;99.90;;;;;;5026370;28;20433;-71
2022/06/23 04:12:02;;;;;;;8.53;6.30;;;19.90;99.90;;;;;;5026534;28;20461;-72
2022/06/23 04:14:32;;;;;;;9.53;6.00;;;20.00;99.90;;;;;;5026638;28;20410;-73
2022/06/23 04:17:26;;;;;;;12.23;7.53;;;20.00;99.90;;;;;;5026422;28;20508;-72
2022/06/23 04:20:41;;;;;;;9.43;6.50;;;20.00;99.90;;;;;;4990253;28;20954;-71
2022/06/23 04:23:33;;;;;;;7.57;5.53;;;20.00;99.90;;;;;;4945867;29;20476;-72
2022/06/23 04:26:06;;;;;;;11.70;7.40;;;20.00;99.90;;;;;;4929657;29;20457;-72
2022/06/23 04:28:36;;;;;;;11.47;6.73;;;20.00;99.90;;;;;;5007327;28;20479;-72
2022/06/23 04:31:06;;;;;;;6.13;5.53;;;20.00;99.90;;;;;;5026522;28;20463;-71
2022/06/23 04:33:38;;;;;;;7.27;5.83;;;19.90;99.90;;;;;;5026277;28;20500;-72
2022/06/23 04:36:04;;;;;;;11.93;7.47;;;19.90;99.90;;;;;;5025943;28;20508;-72
2022/06/23 04:38:44;;;;;;;8.10;6.53;;;19.90;99.90;;;;;;5026364;28;20513;-72
2022/06/23 04:41:21;;;;;;;12.80;7.27;;;20.00;99.90;;;;;;5026387;28;20418;-72
2022/06/23 04:43:50;;;;;;;8.00;5.80;;;20.00;99.90;;;;;;5025890;28;20444;-71
2022/06/23 04:46:43;;;;;;;9.93;6.70;;;20.00;99.90;;;;;;5025809;28;20771;-71
2022/06/23 04:49:22;;;;;;;8.87;5.37;;;20.00;99.90;;;;;;5017528;28;20445;-71
2022/06/23 04:51:53;;;;;;;8.43;5.70;;;20.00;99.90;;;;;;5026228;28;20402;-71
2022/06/23 04:54:31;;;;;;;11.20;7.50;;;20.10;99.90;;;;;;5026119;28;20485;-71
2022/06/23 04:57:09;;;;;;;7.80;6.73;;;20.10;99.90;;;;;;5026096;28;20838;-73
2022/06/23 04:59:48;;;;;;;7.30;6.00;;;20.10;99.90;;;;;;5025639;28;21059;-72
2022/06/23 05:02:41;;;;;;;9.43;7.30;;;20.10;99.90;;;;;;5025589;28;20460;-72
2022/06/23 05:05:16;;;;;;;7.83;6.60;;;20.20;99.90;;;;;;5023545;28;20461;-72
2022/06/23 05:08:07;;;;;;;10.53;6.37;;;20.30;99.90;;;;;;5025552;28;20404;-72
2022/06/23 05:10:43;;;;;;;10.57;6.00;;;20.30;99.90;;;;;;5025566;28;20442;-72
2022/06/23 05:13:18;;;;;;;10.10;7.13;;;20.40;99.90;;;;;;5025457;28;20467;-72
2022/06/23 05:16:08;;;;;;;10.80;6.70;;;20.50;99.90;;;;;;5025537;28;20416;-72
2022/06/23 05:18:40;;;;;;;13.43;7.30;;;20.60;99.90;;;;;;5007101;28;20426;-72
2022/06/23 05:21:17;;;;;;;10.63;6.83;;;20.70;99.90;;;;;;5024845;28;20433;-73
2022/06/23 05:24:06;;;;;;;11.43;6.47;;;20.80;99.90;;;;;;5025183;28;20417;-71
2022/06/23 05:26:55;;;;;;;11.40;6.37;;;20.90;99.90;;;;;;5024781;28;20448;-73
2022/06/23 05:29:32;;;;;;;14.43;6.97;;;21.10;99.90;;;;;;5024622;28;20445;-72
2022/06/23 05:32:02;;;;;;;9.03;6.20;;;21.20;99.90;;;;;;5007003;28;20429;-71
2022/06/23 05:34:31;;;;;;;10.03;6.60;;;21.30;99.90;;;;;;5024821;28;20414;-73
2022/06/23 05:37:39;;;;;;;9.53;5.77;;;21.50;99.90;;;;;;5024807;28;20456;-72
2022/06/23 05:40:20;;;;;;;9.53;6.23;;;21.60;99.90;;;;;;5007638;28;20464;-71
2022/06/23 05:42:51;;;;;;;6.50;5.73;;;21.60;99.90;;;;;;5024895;28;20414;-73
2022/06/23 05:45:22;;;;;;;9.53;6.23;;;21.70;99.90;;;;;;5024779;28;20414;-73
2022/06/23 05:47:48;;;;;;;9.43;5.97;;;21.80;99.90;;;;;;5024452;28;20414;-72
2022/06/23 05:50:26;;;;;;;7.10;5.70;;;21.90;99.90;;;;;;5024458;28;20807;-72
2022/06/23 05:53:01;;;;;;;8.80;5.97;;;22.10;99.90;;;;;;5024378;28;20163;-73
2022/06/23 05:55:32;;;;;;;8.63;6.40;;;22.20;99.90;;;;;;5024686;28;20831;-73
2022/06/23 05:58:13;;;;;;;10.30;6.17;;;22.30;99.90;;;;;;5024513;28;20476;-73
2022/06/23 06:01:10;;;;;;;9.33;6.17;;;22.40;99.90;;;;;;5006242;28;20466;-72
2022/06/23 06:03:43;;;;;;;10.07;5.60;;;22.60;99.90;;;;;;5023160;28;20936;-72
2022/06/23 06:06:10;;;;;;;11.87;7.03;;;22.70;99.90;;;;;;5023873;28;20409;-72
2022/06/23 06:11:44;;;;;;;11.77;6.30;;;22.80;99.90;;;;;;5023761;28;20397;-73
2022/06/23 06:14:13;;;;;;;11.80;6.13;;;22.90;99.90;;;;;;5024229;28;20425;-73
2022/06/23 06:16:39;;;;;;;7.73;5.27;;;23.00;99.90;;;;;;5023835;28;20450;-72
2022/06/23 06:19:05;;;;;;;11.00;6.30;;;23.10;99.90;;;;;;5023707;28;20460;-72
2022/06/23 06:21:31;;;;;;;10.37;6.00;;;23.20;99.90;;;;;;5023626;28;20260;-72
2022/06/23 06:24:31;;;;;;;13.77;7.10;;;23.10;99.90;;;;;;5023815;28;20447;-71
2022/06/23 06:26:59;;;;;;;7.67;6.70;;;22.70;99.90;;;;;;5005399;28;20203;-70
2022/06/23 06:29:35;;;;;;;9.00;6.50;;;22.90;99.90;;;;;;5023837;28;20822;-71
2022/06/23 06:32:35;;;;;;;13.83;6.40;;;23.10;99.90;;;;;;5024671;28;20414;-71
2022/06/23 06:35:39;;;;;;;8.50;7.27;;;23.40;99.90;;;;;;5023656;28;20445;-72
2022/06/23 06:38:24;;;;;;;8.80;6.90;;;23.60;99.90;;;;;;4942864;29;20425;-72
2022/06/23 06:40:54;;;;;;;8.27;7.30;;;23.90;99.90;;;;;;4943267;29;20411;-72
2022/06/23 06:43:24;;;;;;;12.53;7.40;;;24.10;99.90;;;;;;4993197;28;20796;-72
2022/06/23 06:45:49;;;;;;;12.00;7.57;;;24.10;99.90;;;;;;5023415;28;20529;-72
2022/06/23 06:48:23;;;;;;;10.87;6.97;;;24.20;99.90;;;;;;5023731;28;20480;-71
2022/06/23 06:50:53;;;;;;;10.03;7.23;;;24.30;99.90;;;;;;5005509;28;20198;-72
2022/06/23 06:53:47;;;;;;;12.83;6.37;;;24.50;99.90;;;;;;5021885;28;20406;-70
2022/06/23 06:56:37;;;;;;;12.53;6.57;;;24.50;99.90;;;;;;5022248;28;20485;-73
2022/06/23 06:59:16;;;;;;;7.73;4.70;;;24.20;99.90;;;;;;5023045;28;20453;-74
2022/06/23 07:01:44;;;;;;;9.40;5.40;;;23.90;99.90;;;;;;5023184;28;20410;-72
2022/06/23 07:04:16;;;;;;;10.77;4.67;;;23.60;99.90;;;;;;5024482;28;20410;-71
2022/06/23 07:06:47;;;;;;;8.70;5.47;;;23.70;99.90;;;;;;5022863;28;20409;-72
2022/06/23 07:09:31;;;;;;;14.60;5.67;;;23.70;99.90;;;;;;5023316;28;20507;-72
2022/06/23 07:12:26;;;;;;;10.47;4.87;;;23.70;99.90;;;;;;5023116;28;20845;-77
2022/06/23 07:15:11;;;;;;;12.30;5.30;;;23.70;99.90;;;;;;5019717;28;20426;-72
2022/06/23 07:17:48;;;;;;;11.23;5.30;;;23.90;99.90;;;;;;5023091;28;20456;-72
2022/06/23 07:20:22;;;;;;;7.47;4.37;;;24.20;99.90;;;;;;5022842;28;20816;-74
2022/06/23 07:23:14;;;;;;;8.63;4.20;;;24.50;99.90;;;;;;5023353;28;20394;-73
2022/06/23 07:25:46;;;;;;;7.07;4.87;;;24.50;99.90;;;;;;5024073;28;20434;-73
2022/06/23 07:28:20;;;;;;;7.90;4.23;;;24.30;99.90;;;;;;5024101;28;20450;-74
2022/06/23 07:30:58;;;;;;;12.83;4.90;;;24.50;99.90;;;;;;5026963;28;20593;-73
2022/06/23 07:33:49;;;;;;;9.33;4.83;;;24.80;99.90;;;;;;5027966;28;20828;-72
2022/06/23 07:36:25;;;;;;;8.13;3.90;;;24.90;99.90;;;;;;5016248;28;20462;-73
2022/06/23 07:39:01;;;;;;;6.27;4.67;;;25.00;99.90;;;;;;5027526;28;20461;-72
2022/06/23 07:41:34;;;;;;;7.10;4.47;;;25.00;99.90;;;;;;5028064;28;20843;-71
2022/06/23 07:44:00;;;;;;;7.90;4.50;;;25.10;99.90;;;;;;5027317;28;20459;-72
2022/06/23 07:46:26;;;;;;;6.70;3.90;;;24.90;99.90;;;;;;5026803;28;20418;-73
2022/06/23 07:48:52;;;;;;;13.97;4.53;;;25.20;99.90;;;;;;5026509;28;20218;-74
2022/06/23 07:51:18;;;;;;;9.13;4.87;;;25.20;99.90;;;;;;5026157;28;20429;-73
2022/06/23 07:53:47;;;;;;;9.90;4.20;;;25.00;99.90;;;;;;5026370;28;20479;-72
2022/06/23 07:56:16;;;;;;;8.23;3.90;;;25.10;99.90;;;;;;5027212;28;20454;-72
2022/06/23 07:58:44;;;;;;;10.20;4.70;;;25.00;99.90;;;;;;5026819;28;20430;-72
2022/06/23 08:01:17;;;;;;;6.80;4.33;;;25.00;99.90;;;;;;5027344;28;20410;-72
2022/06/23 08:03:59;;;;;;;9.73;4.00;;;24.90;99.90;;;;;;5026662;28;20417;-73
2022/06/23 08:06:26;;;;;;;10.23;4.23;;;24.70;99.90;;;;;;5025026;28;20429;-73
2022/06/23 08:08:56;;;;;;;7.27;4.00;;;24.70;99.90;;;;;;5026611;28;20448;-74
2022/06/23 08:14:17;;;;;;;7.70;4.10;;;24.60;99.90;;;;;;5027268;28;20400;-72
2022/06/23 08:16:50;;;;;;;3.77;3.23;;;24.80;99.90;;;;;;5026897;28;20450;-73
2022/06/23 08:19:19;;;;;;;11.27;4.33;;;25.00;99.90;;;;;;5009408;28;20950;-72
2022/06/23 08:21:51;;;;;;;8.93;4.70;;;24.90;99.90;;;;;;5027001;28;20418;-73
2022/06/23 08:24:21;;;;;;;8.17;4.07;;;24.80;99.90;;;;;;5026343;28;20401;-73
2022/06/23 08:26:55;;;;;;;8.43;4.50;;;24.70;99.90;;;;;;5026126;28;20414;-73
2022/06/23 08:29:32;;;;;;;8.73;3.83;;;24.80;99.90;;;;;;5026584;28;20426;-75
2022/06/23 08:31:59;;;;;;;7.37;3.17;;;25.00;99.90;;;;;;5025942;28;20431;-74
2022/06/23 08:34:26;;;;;;;10.53;3.97;;;25.00;99.90;;;;;;5026417;28;20418;-74
2022/06/23 08:37:00;;;;;;;7.43;3.83;;;25.00;99.90;;;;;;5007540;28;20506;-72
2022/06/23 08:39:46;;;;;;;7.53;3.40;;;24.90;99.90;;;;;;5025287;28;20448;-73
2022/06/23 08:42:28;;;;;;;10.40;4.10;;;25.10;99.90;;;;;;5025920;28;20705;-71
2022/06/23 08:45:09;;;;;;;10.13;4.50;;;25.40;99.90;;;;;;5026014;28;20409;-72
2022/06/23 08:47:43;;;;;;;13.10;3.93;;;25.40;99.90;;;;;;5025769;28;20424;-72
2022/06/23 08:50:17;;;;;;;8.70;3.83;;;25.20;99.90;;;;;;5026371;28;20826;-74
2022/06/23 08:52:58;;;;;;;8.23;3.87;;;25.30;99.90;;;;;;5025524;28;20428;-74
2022/06/23 08:55:43;;;;;;;7.00;4.40;;;25.30;99.90;;;;;;5026274;28;20417;-73
2022/06/23 08:58:29;;;;;;;7.10;3.67;;;25.50;99.90;;;;;;5025926;28;20410;-72
2022/06/23 09:01:21;;;;;;;8.63;4.10;;;25.40;99.90;;;;;;5026280;28;20413;-73
2022/06/23 09:04:13;;;;;;;13.70;4.53;;;25.50;99.90;;;;;;5025499;28;20564;-74
2022/06/23 09:06:47;;;;;;;5.80;3.50;;;25.30;99.90;;;;;;5021933;28;20495;-72
2022/06/23 09:09:39;;;;;;;6.83;3.87;;;25.50;99.90;;;;;;5025604;28;20425;-72
2022/06/23 09:12:33;;;;;;;6.33;3.63;;;25.80;99.90;;;;;;4994987;28;20422;-72
2022/06/23 09:15:20;;;;;;;4.50;3.97;;;25.80;99.90;;;;;;5025802;28;20410;-73
2022/06/23 09:17:56;;;;;;;12.37;4.70;;;25.80;99.90;;;;;;5025492;28;20944;-73
2022/06/23 09:20:39;;;;;;;12.23;4.93;;;26.00;99.90;;;;;;5025033;28;20437;-73
2022/06/23 09:23:46;;;;;;;5.47;3.43;;;26.10;99.90;;;;;;5025274;28;20508;-72
2022/06/23 09:26:40;;;;;;;6.37;3.47;;;26.20;99.90;;;;;;5025476;28;20823;-72
2022/06/23 09:29:39;;;;;;;11.47;3.80;;;25.90;99.90;;;;;;5021250;28;20514;-72
2022/06/23 09:32:14;;;;;;;7.60;3.10;;;26.00;99.90;;;;;;5025498;28;20906;-73
2022/06/23 09:34:48;;;;;;;5.80;3.33;;;26.40;99.90;;;;;;5026152;28;20416;-73
2022/06/23 09:37:41;;;;;;;12.47;3.97;;;26.30;99.90;;;;;;5024876;28;20444;-73
2022/06/23 09:40:26;;;;;;;7.23;3.80;;;26.40;99.90;;;;;;5025464;28;20434;-73
2022/06/23 09:43:17;;;;;;;8.50;2.80;;;26.20;99.90;;;;;;5007097;28;20417;-71
2022/06/23 09:46:21;;;;;;;7.23;3.53;;;26.30;99.90;;;;;;5025164;28;20909;-74
2022/06/23 09:49:02;;;;;;;7.17;3.03;;;26.50;99.90;;;;;;5024071;28;20433;-70
2022/06/23 09:51:39;;;;;;;6.87;3.77;;;26.60;99.90;;;;;;5023460;28;20457;-73
2022/06/23 09:54:23;;;;;;;10.40;3.07;;;26.60;99.90;;;;;;5024919;28;20974;-73
2022/06/23 09:57:07;;;;;;;13.20;4.30;;;26.70;99.90;;;;;;5024980;28;20453;-72
2022/06/23 09:59:56;;;;;;;6.37;3.60;;;26.80;99.90;;;;;;5022431;28;20461;-72
2022/06/23 10:02:49;;;;;;;8.23;3.30;;;26.80;99.90;;;;;;5024852;28;21267;-73
2022/06/23 10:05:53;;;;;;;5.63;3.13;;;26.90;99.90;;;;;;5048973;22;20504;-73
2022/06/23 10:09:06;;;;;;;10.10;4.00;;;27.00;99.90;;;;;;5018702;28;20426;-71
2022/06/23 10:11:40;;;;;;;8.87;3.53;;;27.20;99.90;;;;;;5000540;28;20560;-71
2022/06/23 10:14:15;;;;;;;10.60;3.50;;;27.50;99.90;;;;;;5024498;28;20409;-71
2022/06/23 10:17:19;;;;;;;7.60;3.50;;;27.60;99.90;;;;;;5024084;28;20488;-71
2022/06/23 10:20:00;;;;;;;5.37;2.90;;;27.40;99.90;;;;;;5009382;28;20421;-71
2022/06/23 10:23:08;;;;;;;8.40;2.77;;;27.30;99.90;;;;;;5024200;28;20420;-72
2022/06/23 10:25:52;;;;;;;9.37;3.13;;;27.70;99.90;;;;;;5005044;28;20460;-71
2022/06/23 10:28:18;;;;;;;7.83;3.60;;;27.80;99.90;;;;;;5023651;28;20906;-73
2022/06/23 10:31:10;;;;;;;9.93;3.57;;;27.80;99.90;;;;;;5024001;28;20420;-72
2022/06/23 10:33:56;;;;;;;5.23;3.20;;;27.90;99.90;;;;;;4993097;28;20187;-71
2022/06/23 10:36:36;;;;;;;7.60;3.13;;;27.80;99.90;;;;;;5023631;28;20449;-72
2022/06/23 10:39:22;;;;;;;8.83;3.57;;;27.50;99.90;;;;;;5023624;28;20490;-71
2022/06/23 10:42:12;;;;;;;6.47;3.40;;;27.70;99.90;;;;;;5017093;28;20433;-72
2022/06/23 10:45:12;;;;;;;6.53;3.43;;;28.10;99.90;;;;;;5024782;28;20414;-72
2022/06/23 10:47:50;;;;;;;7.70;3.63;;;28.30;99.90;;;;;;5022862;28;20484;-72
2022/06/23 10:50:53;;;;;;;7.47;3.00;;;28.40;99.90;;;;;;5024170;28;20467;-71
2022/06/23 10:53:43;;;;;;;5.97;2.77;;;28.20;99.90;;;;;;5023397;28;20421;-71
2022/06/23 10:56:31;;;;;;;5.90;2.97;;;28.40;99.90;;;;;;5023665;28;20846;-70
2022/06/23 10:59:09;;;;;;;6.23;3.33;;;28.80;99.90;;;;;;5023158;28;20996;-70
2022/06/23 11:01:52;;;;;;;7.13;3.33;;;28.90;99.90;;;;;;5023596;28;20490;-73
2022/06/23 11:04:45;;;;;;;8.97;4.00;;;28.90;99.90;;;;;;5025896;28;20501;-73
2022/06/23 11:07:14;;;;;;;6.57;3.30;;;29.10;99.90;;;;;;5026198;28;20431;-71
2022/06/23 11:09:54;;;;;;;5.13;2.83;;;28.90;99.90;;;;;;5027182;28;20406;-74
2022/06/23 11:12:37;;;;;;;7.03;3.20;;;28.80;99.90;;;;;;5027161;28;21292;-73
2022/06/23 11:15:18;;;;;;;6.70;3.10;;;28.60;99.80;;;;;;5027510;28;20425;-73
2022/06/23 11:17:57;;;;;;;6.73;3.30;;;28.60;99.40;;;;;;5026632;28;20445;-72
2022/06/23 11:21:02;;;;;;;7.37;3.43;;;28.80;98.70;;;;;;5026659;28;20497;-72
2022/06/23 11:23:59;;;;;;;7.47;2.63;;;29.20;98.10;;;;;;5026739;28;20491;-72
2022/06/23 11:26:35;;;;;;;5.57;3.20;;;29.10;97.00;;;;;;5027281;28;20440;-73
2022/06/23 11:29:12;;;;;;;5.40;2.67;;;29.30;96.90;;;;;;5027517;28;20401;-73
2022/06/23 11:31:58;;;;;;;8.70;4.00;;;29.60;97.80;;;;;;5026846;28;20436;-71
2022/06/23 11:34:36;;;;;;;9.03;3.73;;;29.70;96.50;;;;;;5027239;28;20859;-71
2022/06/23 11:37:10;;;;;;;6.13;2.70;;;30.70;95.10;;;;;;5027317;28;20449;-73
2022/06/23 11:39:56;;;;;;;4.50;2.60;;;31.70;92.50;;;;;;5026774;28;20438;-73
2022/06/23 11:42:48;;;;;;;8.77;2.90;;;33.10;90.90;;;;;;5027483;28;20974;-73
2022/06/23 11:45:13;;;;;;;7.17;3.07;;;33.10;86.60;;;;;;5013222;28;20990;-72
2022/06/23 11:48:16;;;;;;;8.83;3.17;;;33.10;88.50;;;;;;5026937;28;20556;-71
2022/06/23 11:50:51;;;;;;;7.30;2.97;;;33.50;89.20;;;;;;5026109;28;20737;-70
2022/06/23 11:53:16;;;;;;;4.93;2.83;;;34.00;83.70;;;;;;5026337;28;20418;-71
2022/06/23 11:55:48;;;;;;;7.20;3.10;;;33.80;83.80;;;;;;5026073;28;20448;-72
2022/06/23 11:58:38;;;;;;;5.90;2.97;;;34.40;85.00;;;;;;5026393;28;20248;-71
2022/06/23 12:01:14;;;;;;;9.40;3.13;;;35.40;79.60;;;;;;5026471;28;20402;-71
2022/06/23 12:04:00;;;;;;;8.23;2.90;;;35.40;80.50;;;;;;5026132;28;20496;-72
2022/06/23 12:06:28;;;;;;;8.60;3.13;;;35.70;77.70;;;;;;5025532;28;20453;-71
2022/06/23 12:09:01;;;;;;;5.13;2.93;;;35.30;75.40;;;;;;5026852;28;20417;-72
2022/06/23 12:11:30;;;;;;;8.57;3.37;;;34.60;77.10;;;;;;5026114;28;20406;-71
2022/06/23 12:13:59;;;;;;;8.07;3.90;;;33.00;81.30;;;;;;5025785;28;20891;-71
2022/06/23 12:16:25;;;;;;;7.80;3.47;;;32.10;84.20;;;;;;5026218;28;20457;-71
2022/06/23 12:19:01;;;;;;;7.80;3.20;;;32.20;85.00;;;;;;5026307;28;20421;-70
2022/06/23 12:21:27;;;;;;;9.03;3.17;;;32.50;82.50;;;;;;5025467;28;20167;-70
2022/06/23 12:24:05;;;;;;;4.83;2.23;;;34.00;80.10;;;;;;5026026;28;20410;-71
2022/06/23 12:26:36;;;;;;;10.57;2.70;;;35.20;76.60;;;;;;5025816;28;20202;-72
2022/06/23 12:29:43;;;;;;;5.90;3.20;;;36.10;72.00;;;;;;5026115;28;20406;-71
2022/06/23 12:32:28;;;;;;;7.30;2.73;;;36.50;72.80;;;;;;5026002;28;20410;-70
2022/06/23 12:35:11;;;;;;;7.97;3.40;;;36.80;69.50;;;;;;5025319;28;20410;-70
2022/06/23 12:37:49;;;;;;;6.60;3.10;;;36.80;70.10;;;;;;5025050;28;20958;-71
2022/06/23 12:40:24;;;;;;;8.23;2.87;;;36.60;68.80;;;;;;5025404;28;20410;-71
2022/06/23 12:42:57;;;;;;;8.50;3.43;;;37.60;68.10;;;;;;5024570;28;20608;-71
2022/06/23 12:45:35;;;;;;;9.30;2.97;;;37.50;63.60;;;;;;5024991;28;20511;-70
2022/06/23 12:48:24;;;;;;;6.20;2.57;;;37.30;64.80;;;;;;5025700;28;20476;-72
2022/06/23 12:50:53;;;;;;;6.90;3.37;;;38.30;62.80;;;;;;5018072;28;21001;-73
2022/06/23 12:53:39;;;;;;;6.13;2.43;;;38.60;60.90;;;;;;5025171;28;20418;-72
2022/06/23 12:56:32;;;;;;;6.00;2.50;;;38.90;59.50;;;;;;5025632;28;20445;-71
2022/06/23 12:59:25;;;;;;;4.43;2.77;;;39.40;58.40;;;;;;4997841;28;20430;-72
2022/06/23 13:01:57;;;;;;;6.37;2.70;;;40.20;56.40;;;;;;5025333;28;20879;-71
2022/06/23 13:04:36;;;;;;;7.77;2.90;;;39.60;55.90;;;;;;5025262;28;20773;-71
2022/06/23 13:07:06;;;;;;;7.23;2.67;;;40.00;55.40;;;;;;5024729;28;20449;-70
2022/06/23 13:10:02;;;;;;;8.10;3.20;;;38.60;58.00;;;;;;5025154;28;20418;-71
2022/06/23 13:12:37;;;;;;;5.27;2.93;;;37.30;60.10;;;;;;5024000;28;20410;-72
2022/06/23 13:15:08;;;;;;;4.90;2.50;;;37.70;61.40;;;;;;5025126;28;20432;-74
2022/06/23 13:17:56;;;;;;;3.97;2.50;;;38.30;58.20;;;;;;5024914;28;21033;-75
2022/06/23 13:20:42;;;;;;;9.20;3.40;;;39.40;57.90;;;;;;5024931;28;20422;-74
2022/06/23 13:23:15;;;;;;;5.43;2.90;;;38.80;57.30;;;;;;5025472;28;20775;-75
2022/06/23 13:25:51;;;;;;;6.60;2.57;;;36.80;61.60;;;;;;5022884;28;20430;-71
2022/06/23 13:28:39;;;;;;;6.87;3.87;;;36.40;60.50;;;;;;5025199;28;20398;-73
2022/06/23 13:31:27;;;;;;;5.30;2.50;;;36.90;60.40;;;;;;5024832;28;20464;-72
2022/06/23 13:34:03;;;;;;;8.93;3.27;;;37.50;56.70;;;;;;5025522;28;20399;-74
2022/06/23 13:36:52;;;;;;;7.70;3.00;;;38.20;57.10;;;;;;5025571;28;20523;-75
2022/06/23 13:39:27;;;;;;;6.27;2.20;;;39.00;56.90;;;;;;5028525;28;20417;-73
2022/06/23 13:42:08;;;;;;;4.60;2.73;;;39.20;55.00;;;;;;5024632;28;20405;-73
2022/06/23 13:44:56;;;;;;;11.30;3.33;;;39.30;54.90;;;;;;5026068;28;20500;-73
2022/06/23 13:47:24;;;;;;;7.00;3.67;;;39.20;53.50;;;;;;5025961;28;20421;-75
2022/06/23 13:50:07;;;;;;;7.73;2.83;;;38.90;55.20;;;;;;5025301;28;20428;-76
2022/06/23 13:52:50;;;;;;;6.87;2.67;;;39.40;52.20;;;;;;5025083;28;20416;-74
2022/06/23 13:55:28;;;;;;;5.40;2.20;;;40.30;52.50;;;;;;5024981;28;20837;-74
2022/06/23 13:58:16;;;;;;;6.73;2.80;;;40.00;50.50;;;;;;5024881;28;20442;-75
2022/06/23 14:00:44;;;;;;;5.23;2.93;;;40.60;49.00;;;;;;5024809;28;20987;-75